sensor_id;sensor_type;location;lat;lon;timestamp;pressure;altitude;pressure_sealevel;temperature;humidity
30302;BME280;17111;52.130;5.028;2023-06-26T00:01:03;101293.75;;;29.36;40.12
30302;BME280;17111;52.130;5.028;2023-06-26T00:03:32;101296.50;;;29.36;40.45
30302;BME280;17111;52.130;5.028;2023-06-26T00:05:59;101288.31;;;29.36;40.88
30302;BME280;17111;52.130;5.028;2023-06-26T00:08:28;101279.47;;;29.34;40.39
30302;BME280;17111;52.130;5.028;2023-06-26T00:10:55;101284.09;;;29.34;40.55
30302;BME280;17111;52.130;5.028;2023-06-26T00:13:23;101277.81;;;29.33;40.48
30302;BME280;17111;52.130;5.028;2023-06-26T00:15:50;101282.66;;;29.31;40.72
30302;BME280;17111;52.130;5.028;2023-06-26T00:18:17;101274.47;;;29.31;40.69
30302;BME280;17111;52.130;5.028;2023-06-26T00:20:43;101274.66;;;29.30;40.89
30302;BME280;17111;52.130;5.028;2023-06-26T00:23:12;101274.91;;;29.28;40.89
30302;BME280;17111;52.130;5.028;2023-06-26T00:25:39;101274.91;;;29.28;40.99
30302;BME280;17111;52.130;5.028;2023-06-26T00:28:06;101275.09;;;29.26;40.74
30302;BME280;17111;52.130;5.028;2023-06-26T00:30:33;101270.72;;;29.25;40.60
30302;BME280;17111;52.130;5.028;2023-06-26T00:32:59;101276.16;;;29.25;40.97
30302;BME280;17111;52.130;5.028;2023-06-26T00:35:26;101280.78;;;29.25;40.84
30302;BME280;17111;52.130;5.028;2023-06-26T00:37:53;101282.06;;;29.22;41.08
30302;BME280;17111;52.130;5.028;2023-06-26T00:40:19;101285.00;;;29.21;40.90
30302;BME280;17111;52.130;5.028;2023-06-26T00:42:46;101301.41;;;29.21;40.81
30302;BME280;17111;52.130;5.028;2023-06-26T00:45:12;101308.13;;;29.18;40.62
30302;BME280;17111;52.130;5.028;2023-06-26T00:47:39;101299.31;;;29.16;40.59
30302;BME280;17111;52.130;5.028;2023-06-26T00:50:06;101297.03;;;29.13;40.52
30302;BME280;17111;52.130;5.028;2023-06-26T00:52:33;101305.44;;;29.12;40.80
30302;BME280;17111;52.130;5.028;2023-06-26T00:55:00;101302.06;;;29.10;41.15
30302;BME280;17111;52.130;5.028;2023-06-26T00:57:26;101309.66;;;29.08;41.33
30302;BME280;17111;52.130;5.028;2023-06-26T00:59:53;101309.84;;;29.06;41.66
30302;BME280;17111;52.130;5.028;2023-06-26T01:02:20;101309.25;;;29.04;41.48
30302;BME280;17111;52.130;5.028;2023-06-26T01:04:50;101323.09;;;29.02;41.24
30302;BME280;17111;52.130;5.028;2023-06-26T01:07:19;101318.69;;;29.01;41.55
30302;BME280;17111;52.130;5.028;2023-06-26T01:09:48;101319.13;;;28.98;41.19
30302;BME280;17111;52.130;5.028;2023-06-26T01:12:15;101318.28;;;28.98;41.54
30302;BME280;17111;52.130;5.028;2023-06-26T01:14:42;101325.00;;;28.95;41.82
30302;BME280;17111;52.130;5.028;2023-06-26T01:17:09;101323.53;;;28.93;41.37
30302;BME280;17111;52.130;5.028;2023-06-26T01:19:41;101331.09;;;28.91;41.85
30302;BME280;17111;52.130;5.028;2023-06-26T01:22:31;101326.91;;;28.88;41.61
30302;BME280;17111;52.130;5.028;2023-06-26T01:28:06;101329.63;;;28.88;41.73
30302;BME280;17111;52.130;5.028;2023-06-26T01:30:41;101336.56;;;28.84;41.66
30302;BME280;17111;52.130;5.028;2023-06-26T01:33:08;101333.19;;;28.82;41.48
30302;BME280;17111;52.130;5.028;2023-06-26T01:35:35;101328.81;;;28.81;41.65
30302;BME280;17111;52.130;5.028;2023-06-26T01:38:20;101322.94;;;28.77;41.91
30302;BME280;17111;52.130;5.028;2023-06-26T01:40:47;101324.00;;;28.76;41.80
30302;BME280;17111;52.130;5.028;2023-06-26T01:46:18;101323.81;;;28.71;42.13
30302;BME280;17111;52.130;5.028;2023-06-26T01:49:09;101332.41;;;28.68;42.53
30302;BME280;17111;52.130;5.028;2023-06-26T01:52:20;101332.00;;;28.65;42.55
30302;BME280;17111;52.130;5.028;2023-06-26T01:55:01;101334.94;;;28.63;42.15
30302;BME280;17111;52.130;5.028;2023-06-26T01:57:30;101331.38;;;28.63;42.67
30302;BME280;17111;52.130;5.028;2023-06-26T01:59:58;101328.00;;;28.61;42.30
30302;BME280;17111;52.130;5.028;2023-06-26T02:02:25;101329.06;;;28.60;42.09
30302;BME280;17111;52.130;5.028;2023-06-26T02:04:52;101324.88;;;28.57;42.63
30302;BME280;17111;52.130;5.028;2023-06-26T02:07:18;101325.94;;;28.56;42.65
30302;BME280;17111;52.130;5.028;2023-06-26T02:09:45;101326.16;;;28.55;42.03
30302;BME280;17111;52.130;5.028;2023-06-26T02:12:12;101338.91;;;28.54;42.27
30302;BME280;17111;52.130;5.028;2023-06-26T02:14:38;101341.03;;;28.52;42.85
30302;BME280;17111;52.130;5.028;2023-06-26T02:17:05;101339.56;;;28.49;42.06
30302;BME280;17111;52.130;5.028;2023-06-26T02:19:32;101349.63;;;28.49;42.20
30302;BME280;17111;52.130;5.028;2023-06-26T02:21:58;101347.13;;;28.47;42.72
30302;BME280;17111;52.130;5.028;2023-06-26T02:24:25;101347.13;;;28.47;43.04
30302;BME280;17111;52.130;5.028;2023-06-26T02:26:53;101350.91;;;28.46;43.12
30302;BME280;17111;52.130;5.028;2023-06-26T02:29:20;101350.28;;;28.44;42.98
30302;BME280;17111;52.130;5.028;2023-06-26T02:31:46;101340.41;;;28.43;43.21
30302;BME280;17111;52.130;5.028;2023-06-26T02:34:13;101350.50;;;28.43;42.72
30302;BME280;17111;52.130;5.028;2023-06-26T02:36:40;101345.22;;;28.41;42.55
30302;BME280;17111;52.130;5.028;2023-06-26T02:39:06;101350.91;;;28.40;42.73
30302;BME280;17111;52.130;5.028;2023-06-26T02:41:33;101352.56;;;28.41;42.38
30302;BME280;17111;52.130;5.028;2023-06-26T02:43:59;101351.97;;;28.39;42.38
30302;BME280;17111;52.130;5.028;2023-06-26T02:46:26;101357.59;;;28.37;42.84
30302;BME280;17111;52.130;5.028;2023-06-26T02:48:53;101356.78;;;28.37;43.27
30302;BME280;17111;52.130;5.028;2023-06-26T02:51:19;101354.25;;;28.35;42.73
30302;BME280;17111;52.130;5.028;2023-06-26T02:53:46;101355.25;;;28.34;43.03
30302;BME280;17111;52.130;5.028;2023-06-26T02:56:12;101356.31;;;28.33;43.07
30302;BME280;17111;52.130;5.028;2023-06-26T02:58:39;101367.22;;;28.33;42.49
30302;BME280;17111;52.130;5.028;2023-06-26T03:01:06;101362.84;;;28.32;42.86
30302;BME280;17111;52.130;5.028;2023-06-26T03:03:33;101369.34;;;28.31;42.97
30302;BME280;17111;52.130;5.028;2023-06-26T03:06:07;101372.25;;;28.29;43.25
30302;BME280;17111;52.130;5.028;2023-06-26T03:08:37;101374.16;;;28.29;42.95
30302;BME280;17111;52.130;5.028;2023-06-26T03:11:06;101380.66;;;28.28;43.10
30302;BME280;17111;52.130;5.028;2023-06-26T03:13:34;101376.25;;;28.27;42.62
30302;BME280;17111;52.130;5.028;2023-06-26T03:16:01;101374.38;;;28.27;43.28
30302;BME280;17111;52.130;5.028;2023-06-26T03:18:28;101366.38;;;28.26;43.19
30302;BME280;17111;52.130;5.028;2023-06-26T03:20:56;101385.47;;;28.26;42.81
30302;BME280;17111;52.130;5.028;2023-06-26T03:23:23;101391.13;;;28.24;43.14
30302;BME280;17111;52.130;5.028;2023-06-26T03:25:51;101390.31;;;28.24;42.72
30302;BME280;17111;52.130;5.028;2023-06-26T03:28:17;101400.38;;;28.23;42.79
30302;BME280;17111;52.130;5.028;2023-06-26T03:30:44;101401.44;;;28.22;43.37
30302;BME280;17111;52.130;5.028;2023-06-26T03:33:11;101397.84;;;28.22;43.40
30302;BME280;17111;52.130;5.028;2023-06-26T03:35:37;101404.97;;;28.23;42.88
30302;BME280;17111;52.130;5.028;2023-06-26T03:38:04;101402.25;;;28.23;42.83
30302;BME280;17111;52.130;5.028;2023-06-26T03:40:31;101404.16;;;28.22;43.06
30302;BME280;17111;52.130;5.028;2023-06-26T03:42:58;101409.78;;;28.21;43.53
30302;BME280;17111;52.130;5.028;2023-06-26T03:45:24;101408.72;;;28.22;43.52
30302;BME280;17111;52.130;5.028;2023-06-26T03:47:51;101405.41;;;28.20;43.56
30302;BME280;17111;52.130;5.028;2023-06-26T03:50:18;101411.69;;;28.20;43.58
30302;BME280;17111;52.130;5.028;2023-06-26T03:52:45;101413.34;;;28.21;43.19
30302;BME280;17111;52.130;5.028;2023-06-26T03:55:12;101420.69;;;28.21;43.59
30302;BME280;17111;52.130;5.028;2023-06-26T03:57:39;101415.47;;;28.19;43.41
30302;BME280;17111;52.130;5.028;2023-06-26T04:00:06;101420.06;;;28.19;43.41
30302;BME280;17111;52.130;5.028;2023-06-26T04:02:35;101422.59;;;28.20;42.83
30302;BME280;17111;52.130;5.028;2023-06-26T04:05:01;101421.97;;;28.18;43.55
30302;BME280;17111;52.130;5.028;2023-06-26T04:07:31;101433.72;;;28.19;43.06
30302;BME280;17111;52.130;5.028;2023-06-26T04:09:59;101429.28;;;28.18;43.38
30302;BME280;17111;52.130;5.028;2023-06-26T04:12:25;101439.16;;;28.19;42.91
30302;BME280;17111;52.130;5.028;2023-06-26T04:14:52;101441.25;;;28.17;43.11
30302;BME280;17111;52.130;5.028;2023-06-26T04:17:18;101441.25;;;28.17;43.27
30302;BME280;17111;52.130;5.028;2023-06-26T04:19:46;101439.34;;;28.17;43.01
30302;BME280;17111;52.130;5.028;2023-06-26T04:22:12;101446.69;;;28.17;42.93
30302;BME280;17111;52.130;5.028;2023-06-26T04:24:39;101457.59;;;28.17;42.90
30302;BME280;17111;52.130;5.028;2023-06-26T04:27:06;101460.31;;;28.17;42.94
30302;BME280;17111;52.130;5.028;2023-06-26T04:29:32;101464.94;;;28.16;43.12
30302;BME280;17111;52.130;5.028;2023-06-26T04:31:59;101469.56;;;28.16;43.15
30302;BME280;17111;52.130;5.028;2023-06-26T04:34:29;101475.84;;;28.16;43.13
30302;BME280;17111;52.130;5.028;2023-06-26T04:36:58;101466.00;;;28.15;43.20
30302;BME280;17111;52.130;5.028;2023-06-26T04:39:25;101475.00;;;28.16;43.08
30302;BME280;17111;52.130;5.028;2023-06-26T04:41:52;101482.34;;;28.15;43.41
30302;BME280;17111;52.130;5.028;2023-06-26T04:44:19;101484.22;;;28.15;43.68
30302;BME280;17111;52.130;5.028;2023-06-26T04:46:45;101492.41;;;28.15;43.17
30302;BME280;17111;52.130;5.028;2023-06-26T04:49:12;101496.16;;;28.14;43.59
30302;BME280;17111;52.130;5.028;2023-06-26T04:51:38;101493.44;;;28.14;43.10
30302;BME280;17111;52.130;5.028;2023-06-26T04:54:07;101489.88;;;28.13;43.12
30302;BME280;17111;52.130;5.028;2023-06-26T04:56:35;101487.16;;;28.13;43.01
30302;BME280;17111;52.130;5.028;2023-06-26T04:59:02;101491.56;;;28.14;43.51
30302;BME280;17111;52.130;5.028;2023-06-26T05:01:29;101505.19;;;28.14;43.25
30302;BME280;17111;52.130;5.028;2023-06-26T05:03:56;101501.44;;;28.15;43.46
30302;BME280;17111;52.130;5.028;2023-06-26T05:06:23;101500.59;;;28.15;43.45
30302;BME280;17111;52.130;5.028;2023-06-26T05:08:50;101504.97;;;28.16;43.13
30302;BME280;17111;52.130;5.028;2023-06-26T05:11:17;101516.72;;;28.16;43.67
30302;BME280;17111;52.130;5.028;2023-06-26T05:13:43;101512.75;;;28.19;43.64
30302;BME280;17111;52.130;5.028;2023-06-26T05:16:10;101509.81;;;28.20;42.90
30302;BME280;17111;52.130;5.028;2023-06-26T05:18:37;101505.19;;;28.21;42.62
30302;BME280;17111;52.130;5.028;2023-06-26T05:21:04;101507.75;;;28.22;42.90
30302;BME280;17111;52.130;5.028;2023-06-26T05:23:31;101506.03;;;28.21;43.22
30302;BME280;17111;52.130;5.028;2023-06-26T05:26:02;101512.13;;;28.23;43.25
30302;BME280;17111;52.130;5.028;2023-06-26T05:28:30;101511.91;;;28.25;43.47
30302;BME280;17111;52.130;5.028;2023-06-26T05:30:58;101514.47;;;28.26;43.20
30302;BME280;17111;52.130;5.028;2023-06-26T05:33:26;101515.91;;;28.29;43.26
30302;BME280;17111;52.130;5.028;2023-06-26T05:35:54;101520.31;;;28.30;43.28
30302;BME280;17111;52.130;5.028;2023-06-26T05:38:21;101527.25;;;28.33;42.84
30302;BME280;17111;52.130;5.028;2023-06-26T05:40:48;101529.75;;;28.34;43.31
30302;BME280;17111;52.130;5.028;2023-06-26T05:43:15;101526.66;;;28.37;43.38
30302;BME280;17111;52.130;5.028;2023-06-26T05:45:42;101547.03;;;28.41;42.61
30302;BME280;17111;52.130;5.028;2023-06-26T05:48:08;101551.44;;;28.42;42.66
30302;BME280;17111;52.130;5.028;2023-06-26T05:50:35;101554.78;;;28.44;42.58
30302;BME280;17111;52.130;5.028;2023-06-26T05:53:03;101561.75;;;28.47;42.44
30302;BME280;17111;52.130;5.028;2023-06-26T05:55:30;101563.19;;;28.49;42.50
30302;BME280;17111;52.130;5.028;2023-06-26T05:57:58;101566.56;;;28.51;42.41
30302;BME280;17111;52.130;5.028;2023-06-26T06:00:26;101569.06;;;28.53;42.31
30302;BME280;17111;52.130;5.028;2023-06-26T06:02:54;101571.63;;;28.55;42.79
30302;BME280;17111;52.130;5.028;2023-06-26T06:05:21;101576.03;;;28.56;42.22
30302;BME280;17111;52.130;5.028;2023-06-26T06:07:49;101585.88;;;28.57;42.29
30302;BME280;17111;52.130;5.028;2023-06-26T06:10:16;101588.59;;;28.57;42.68
30302;BME280;17111;52.130;5.028;2023-06-26T06:12:43;101584.19;;;28.56;42.28
30302;BME280;17111;52.130;5.028;2023-06-26T06:15:09;101590.50;;;28.56;42.77
30302;BME280;17111;52.130;5.028;2023-06-26T06:17:36;101587.97;;;28.55;42.41
30302;BME280;17111;52.130;5.028;2023-06-26T06:20:03;101589.00;;;28.53;42.83
30302;BME280;17111;52.130;5.028;2023-06-26T06:22:30;101593.63;;;28.53;42.45
30302;BME280;17111;52.130;5.028;2023-06-26T06:24:57;101611.88;;;28.52;42.77
30302;BME280;17111;52.130;5.028;2023-06-26T06:27:24;101612.28;;;28.49;42.80
30302;BME280;17111;52.130;5.028;2023-06-26T06:29:50;101617.75;;;28.49;42.89
30302;BME280;17111;52.130;5.028;2023-06-26T06:32:17;101624.47;;;28.47;43.14
30302;BME280;17111;52.130;5.028;2023-06-26T06:34:44;101627.38;;;28.45;42.60
30302;BME280;17111;52.130;5.028;2023-06-26T06:37:10;101638.28;;;28.45;42.52
30302;BME280;17111;52.130;5.028;2023-06-26T06:39:37;101640.19;;;28.45;42.46
30302;BME280;17111;52.130;5.028;2023-06-26T06:42:04;101647.53;;;28.44;42.91
30302;BME280;17111;52.130;5.028;2023-06-26T06:44:31;101647.53;;;28.44;43.24
30302;BME280;17111;52.130;5.028;2023-06-26T06:46:57;101641.22;;;28.44;42.70
30302;BME280;17111;52.130;5.028;2023-06-26T06:49:24;101637.44;;;28.45;43.25
30302;BME280;17111;52.130;5.028;2023-06-26T06:51:50;101641.22;;;28.44;42.75
30302;BME280;17111;52.130;5.028;2023-06-26T06:54:17;101655.69;;;28.44;43.11
30302;BME280;17111;52.130;5.028;2023-06-26T06:56:44;101661.38;;;28.43;42.46
30302;BME280;17111;52.130;5.028;2023-06-26T06:59:10;101655.91;;;28.43;42.61
30302;BME280;17111;52.130;5.028;2023-06-26T07:01:39;101662.38;;;28.42;43.28
30302;BME280;17111;52.130;5.028;2023-06-26T07:04:05;101660.53;;;28.42;42.60
30302;BME280;17111;52.130;5.028;2023-06-26T07:06:32;101675.19;;;28.41;42.85
30302;BME280;17111;52.130;5.028;2023-06-26T07:08:58;101673.53;;;28.40;42.85
30302;BME280;17111;52.130;5.028;2023-06-26T07:11:25;101678.13;;;28.40;42.70
30302;BME280;17111;52.130;5.028;2023-06-26T07:13:52;101670.13;;;28.38;42.92
30302;BME280;17111;52.130;5.028;2023-06-26T07:16:18;101669.94;;;28.40;42.69
30302;BME280;17111;52.130;5.028;2023-06-26T07:18:45;101671.63;;;28.41;42.44
30302;BME280;17111;52.130;5.028;2023-06-26T07:21:12;101668.91;;;28.41;42.42
30302;BME280;17111;52.130;5.028;2023-06-26T07:23:38;101669.75;;;28.41;43.17
30302;BME280;17111;52.130;5.028;2023-06-26T07:26:05;101677.09;;;28.41;42.56
30302;BME280;17111;52.130;5.028;2023-06-26T07:28:31;101689.03;;;28.40;42.47
30302;BME280;17111;52.130;5.028;2023-06-26T07:30:58;101690.72;;;28.41;42.99
30302;BME280;17111;52.130;5.028;2023-06-26T07:33:25;101685.47;;;28.39;43.27
30302;BME280;17111;52.130;5.028;2023-06-26T07:35:51;101689.22;;;28.38;42.51
30302;BME280;17111;52.130;5.028;2023-06-26T07:38:18;101696.38;;;28.39;42.75
30302;BME280;17111;52.130;5.028;2023-06-26T07:40:44;101704.56;;;28.39;42.85
30302;BME280;17111;52.130;5.028;2023-06-26T07:43:11;101703.50;;;28.40;43.14
30302;BME280;17111;52.130;5.028;2023-06-26T07:45:37;101713.38;;;28.41;43.11
30302;BME280;17111;52.130;5.028;2023-06-26T07:48:05;101708.97;;;28.40;42.85
30302;BME280;17111;52.130;5.028;2023-06-26T07:50:32;101715.25;;;28.41;42.96
30302;BME280;17111;52.130;5.028;2023-06-26T07:52:59;101711.47;;;28.42;43.20
30302;BME280;17111;52.130;5.028;2023-06-26T07:55:26;101715.91;;;28.43;42.89
30302;BME280;17111;52.130;5.028;2023-06-26T07:57:53;101717.59;;;28.44;42.22
30302;BME280;17111;52.130;5.028;2023-06-26T08:00:21;101727.66;;;28.43;42.43
30302;BME280;17111;52.130;5.028;2023-06-26T08:02:48;101723.88;;;28.44;42.29
30302;BME280;17111;52.130;5.028;2023-06-26T08:05:14;101722.84;;;28.45;42.53
30302;BME280;17111;52.130;5.028;2023-06-26T08:07:41;101728.28;;;28.45;42.20
30302;BME280;17111;52.130;5.028;2023-06-26T08:10:08;101733.56;;;28.47;42.91
30302;BME280;17111;52.130;5.028;2023-06-26T08:12:35;101730.84;;;28.47;42.19
30302;BME280;17111;52.130;5.028;2023-06-26T08:15:03;101739.84;;;28.47;42.74
30302;BME280;17111;52.130;5.028;2023-06-26T08:17:31;101743.41;;;28.48;42.29
30302;BME280;17111;52.130;5.028;2023-06-26T08:19:57;101740.69;;;28.48;42.99
30302;BME280;17111;52.130;5.028;2023-06-26T08:22:24;101749.72;;;28.48;42.18
30302;BME280;17111;52.130;5.028;2023-06-26T08:24:50;101749.72;;;28.48;42.21
30302;BME280;17111;52.130;5.028;2023-06-26T08:27:17;101747.81;;;28.49;42.96
30302;BME280;17111;52.130;5.028;2023-06-26T08:29:44;101748.88;;;28.48;42.14
30302;BME280;17111;52.130;5.028;2023-06-26T08:32:10;101750.53;;;28.49;42.80
30302;BME280;17111;52.130;5.028;2023-06-26T08:34:37;101747.63;;;28.50;42.61
30302;BME280;17111;52.130;5.028;2023-06-26T08:37:04;101753.94;;;28.51;42.67
30302;BME280;17111;52.130;5.028;2023-06-26T08:39:32;101766.50;;;28.52;42.22
30302;BME280;17111;52.130;5.028;2023-06-26T08:41:59;101758.34;;;28.52;42.90
30302;BME280;17111;52.130;5.028;2023-06-26T08:44:25;101764.63;;;28.52;42.74
30302;BME280;17111;52.130;5.028;2023-06-26T08:46:52;101760.84;;;28.53;42.68
30302;BME280;17111;52.130;5.028;2023-06-26T08:49:29;101769.03;;;28.53;42.32
30302;BME280;17111;52.130;5.028;2023-06-26T08:52:22;101762.56;;;28.55;42.56
30302;BME280;17111;52.130;5.028;2023-06-26T08:54:55;101775.13;;;28.56;42.35
30302;BME280;17111;52.130;5.028;2023-06-26T08:57:25;101772.19;;;28.57;42.65
30302;BME280;17111;52.130;5.028;2023-06-26T08:59:53;101779.53;;;28.57;42.50
30302;BME280;17111;52.130;5.028;2023-06-26T09:02:20;101783.94;;;28.58;42.75
30302;BME280;17111;52.130;5.028;2023-06-26T09:04:48;101782.06;;;28.58;42.22
30302;BME280;17111;52.130;5.028;2023-06-26T09:07:16;101788.16;;;28.60;41.93
30302;BME280;17111;52.130;5.028;2023-06-26T09:09:43;101783.34;;;28.62;42.34
30302;BME280;17111;52.130;5.028;2023-06-26T09:12:10;101792.41;;;28.63;42.67
30302;BME280;17111;52.130;5.028;2023-06-26T09:14:38;101791.34;;;28.64;41.94
30302;BME280;17111;52.130;5.028;2023-06-26T09:17:05;101783.78;;;28.66;41.95
30302;BME280;17111;52.130;5.028;2023-06-26T09:19:33;101802.88;;;28.66;42.26
30302;BME280;17111;52.130;5.028;2023-06-26T09:22:02;101796.19;;;28.68;42.22
30302;BME280;17111;52.130;5.028;2023-06-26T09:24:30;101808.59;;;28.71;42.56
30302;BME280;17111;52.130;5.028;2023-06-26T09:26:57;101802.94;;;28.72;42.45
30302;BME280;17111;52.130;5.028;2023-06-26T09:29:23;101810.72;;;28.75;42.41
30302;BME280;17111;52.130;5.028;2023-06-26T09:31:51;101812.19;;;28.78;42.41
30302;BME280;17111;52.130;5.028;2023-06-26T09:34:18;101819.13;;;28.81;41.78
30302;BME280;17111;52.130;5.028;2023-06-26T09:36:46;101813.47;;;28.82;42.64
30302;BME280;17111;52.130;5.028;2023-06-26T09:39:14;101822.09;;;28.86;41.77
30302;BME280;17111;52.130;5.028;2023-06-26T09:41:42;101828.19;;;28.88;42.31
30302;BME280;17111;52.130;5.028;2023-06-26T09:44:11;101825.25;;;28.89;41.70
30302;BME280;17111;52.130;5.028;2023-06-26T09:46:39;101830.31;;;28.92;41.64
30302;BME280;17111;52.130;5.028;2023-06-26T09:49:09;101824.66;;;28.94;42.22
30302;BME280;17111;52.130;5.028;2023-06-26T09:51:41;101834.31;;;28.96;41.76
30302;BME280;17111;52.130;5.028;2023-06-26T09:54:09;101829.53;;;28.98;42.09
30302;BME280;17111;52.130;5.028;2023-06-26T09:56:36;101841.09;;;29.00;42.31
30302;BME280;17111;52.130;5.028;2023-06-26T09:59:04;101855.38;;;29.02;42.33
30302;BME280;17111;52.130;5.028;2023-06-26T10:01:32;101850.56;;;29.05;41.77
30302;BME280;17111;52.130;5.028;2023-06-26T10:03:59;101856.66;;;29.07;41.51
30302;BME280;17111;52.130;5.028;2023-06-26T10:06:36;101860.88;;;29.09;41.52
30302;BME280;17111;52.130;5.028;2023-06-26T10:09:03;101866.16;;;29.11;41.50
30302;BME280;17111;52.130;5.028;2023-06-26T10:11:36;101864.88;;;29.13;41.40
30302;BME280;17111;52.130;5.028;2023-06-26T10:14:04;101871.84;;;29.16;42.09
30302;BME280;17111;52.130;5.028;2023-06-26T10:16:44;101873.28;;;29.18;41.69
30302;BME280;17111;52.130;5.028;2023-06-26T10:19:14;101881.31;;;29.20;41.24
30302;BME280;17111;52.130;5.028;2023-06-26T10:21:45;101889.09;;;29.23;41.63
30302;BME280;17111;52.130;5.028;2023-06-26T10:24:12;101891.59;;;29.24;41.40
30302;BME280;17111;52.130;5.028;2023-06-26T10:26:44;101897.91;;;29.25;41.50
30302;BME280;17111;52.130;5.028;2023-06-26T10:29:13;101902.13;;;29.27;41.04
30302;BME280;17111;52.130;5.028;2023-06-26T10:31:48;101884.69;;;29.29;41.09
30302;BME280;17111;52.130;5.028;2023-06-26T10:34:16;101885.53;;;29.29;41.21
30302;BME280;17111;52.130;5.028;2023-06-26T10:36:43;101899.84;;;29.31;41.15
30302;BME280;17111;52.130;5.028;2023-06-26T10:39:10;101888.69;;;29.33;41.04
30302;BME280;17111;52.130;5.028;2023-06-26T10:41:38;101896.69;;;29.34;41.72
30302;BME280;17111;52.130;5.028;2023-06-26T10:44:18;101888.47;;;29.34;41.17
30302;BME280;17111;52.130;5.028;2023-06-26T10:46:51;101890.19;;;29.35;41.61
30302;BME280;17111;52.130;5.028;2023-06-26T10:49:26;101898.38;;;29.35;41.19
30302;BME280;17111;52.130;5.028;2023-06-26T10:51:54;101894.59;;;29.36;41.50
30302;BME280;17111;52.130;5.028;2023-06-26T10:54:28;101905.53;;;29.36;41.17
30302;BME280;17111;52.130;5.028;2023-06-26T10:56:56;101899.84;;;29.38;41.27
30302;BME280;17111;52.130;5.028;2023-06-26T10:59:28;101915.41;;;29.37;41.42
30302;BME280;17111;52.130;5.028;2023-06-26T11:01:58;101909.94;;;29.37;41.48
30302;BME280;17111;52.130;5.028;2023-06-26T11:04:46;101907.19;;;29.37;41.32
30302;BME280;17111;52.130;5.028;2023-06-26T11:07:21;101911.63;;;29.38;41.18
30302;BME280;17111;52.130;5.028;2023-06-26T11:10:02;101907.84;;;29.39;41.49
30302;BME280;17111;52.130;5.028;2023-06-26T11:12:44;101912.88;;;29.42;40.94
30302;BME280;17111;52.130;5.028;2023-06-26T11:15:15;101924.03;;;29.41;40.75
30302;BME280;17111;52.130;5.028;2023-06-26T11:17:43;101928.44;;;29.42;41.06
30302;BME280;17111;52.130;5.028;2023-06-26T11:20:12;101929.28;;;29.42;40.76
30302;BME280;17111;52.130;5.028;2023-06-26T11:22:40;101926.38;;;29.44;41.03
30302;BME280;17111;52.130;5.028;2023-06-26T11:25:08;101932.66;;;29.44;41.10
30302;BME280;17111;52.130;5.028;2023-06-26T11:27:42;101932.66;;;29.44;41.12
30302;BME280;17111;52.130;5.028;2023-06-26T11:30:11;101939.81;;;29.45;40.92
30302;BME280;17111;52.130;5.028;2023-06-26T11:32:38;101938.75;;;29.46;40.98
30302;BME280;17111;52.130;5.028;2023-06-26T11:35:06;101945.09;;;29.47;40.63
30302;BME280;17111;52.130;5.028;2023-06-26T11:37:32;101954.13;;;29.47;40.61
30302;BME280;17111;52.130;5.028;2023-06-26T11:40:16;101952.22;;;29.48;41.27
30302;BME280;17111;52.130;5.028;2023-06-26T11:42:43;101962.94;;;29.49;40.97
30302;BME280;17111;52.130;5.028;2023-06-26T11:45:10;101971.13;;;29.49;40.56
30302;BME280;17111;52.130;5.028;2023-06-26T11:47:39;101967.34;;;29.50;41.11
30302;BME280;17111;52.130;5.028;2023-06-26T11:50:06;101968.00;;;29.52;40.33
30302;BME280;17111;52.130;5.028;2023-06-26T11:52:33;101976.19;;;29.52;40.88
30302;BME280;17111;52.130;5.028;2023-06-26T11:54:59;101977.88;;;29.54;40.95
30302;BME280;17111;52.130;5.028;2023-06-26T11:57:26;101986.06;;;29.54;40.33
30302;BME280;17111;52.130;5.028;2023-06-26T11:59:53;101986.91;;;29.54;40.82
30302;BME280;17111;52.130;5.028;2023-06-26T12:02:21;101994.09;;;29.55;40.26
30302;BME280;17111;52.130;5.028;2023-06-26T12:04:48;101994.94;;;29.56;40.92
30302;BME280;17111;52.130;5.028;2023-06-26T12:07:16;101997.66;;;29.56;40.31
30302;BME280;17111;52.130;5.028;2023-06-26T12:09:45;101996.63;;;29.57;40.94
30302;BME280;17111;52.130;5.028;2023-06-26T12:12:15;101993.91;;;29.57;40.43
30302;BME280;17111;52.130;5.028;2023-06-26T12:14:42;101997.25;;;29.59;40.22
30302;BME280;17111;52.130;5.028;2023-06-26T12:17:13;101988.22;;;29.58;40.72
30302;BME280;17111;52.130;5.028;2023-06-26T12:19:45;101998.13;;;29.59;40.56
30302;BME280;17111;52.130;5.028;2023-06-26T12:22:16;101996.25;;;29.60;40.30
30302;BME280;17111;52.130;5.028;2023-06-26T12:24:44;102000.88;;;29.59;40.34
30302;BME280;17111;52.130;5.028;2023-06-26T12:27:13;102003.59;;;29.59;40.12
30302;BME280;17111;52.130;5.028;2023-06-26T12:29:51;102004.63;;;29.58;40.55
30302;BME280;17111;52.130;5.028;2023-06-26T12:32:19;102012.63;;;29.60;40.30
30302;BME280;17111;52.130;5.028;2023-06-26T12:34:50;102027.31;;;29.59;40.32
30302;BME280;17111;52.130;5.028;2023-06-26T12:37:16;102026.28;;;29.60;40.68
30302;BME280;17111;52.130;5.028;2023-06-26T12:39:50;102033.66;;;29.59;39.98
30302;BME280;17111;52.130;5.028;2023-06-26T12:42:22;102035.34;;;29.60;40.14
30302;BME280;17111;52.130;5.028;2023-06-26T12:44:51;102025.47;;;29.59;40.70
30302;BME280;17111;52.130;5.028;2023-06-26T12:47:19;102032.59;;;29.60;40.63
30302;BME280;17111;52.130;5.028;2023-06-26T12:49:50;102038.06;;;29.60;40.51
30302;BME280;17111;52.130;5.028;2023-06-26T12:52:18;102030.91;;;29.59;40.70
30302;BME280;17111;52.130;5.028;2023-06-26T12:54:54;102030.91;;;29.59;40.44
30302;BME280;17111;52.130;5.028;2023-06-26T12:57:23;102029.88;;;29.60;40.39
30302;BME280;17111;52.130;5.028;2023-06-26T12:59:50;102032.59;;;29.60;40.20
30302;BME280;17111;52.130;5.028;2023-06-26T13:02:16;102034.50;;;29.60;40.44